createdAt,value
2018-05-23T00:01:01.837Z,18.31
2018-05-23T00:03:29.377Z,18.36
2018-05-23T00:05:56.986Z,18.32
2018-05-23T00:08:24.507Z,18.40
2018-05-23T00:10:52.029Z,18.27
2018-05-23T00:13:19.559Z,18.23
2018-05-23T00:15:47.088Z,18.34
2018-05-23T00:18:14.607Z,18.32
2018-05-23T00:20:42.126Z,18.24
2018-05-23T00:23:09.654Z,18.17
2018-05-23T00:25:37.193Z,18.16
2018-05-23T00:28:04.740Z,18.25
2018-05-23T00:30:32.376Z,18.20
2018-05-23T00:32:59.903Z,18.10
2018-05-23T00:35:27.424Z,18.06
2018-05-23T00:37:54.954Z,17.96
2018-05-23T00:40:22.478Z,17.93
2018-05-23T00:42:50.043Z,18.00
2018-05-23T00:45:17.560Z,18.02
2018-05-23T00:47:45.091Z,18.00
2018-05-23T00:50:12.695Z,18.04
2018-05-23T00:52:40.205Z,18.05
2018-05-23T00:55:19.582Z,18.04
2018-05-23T00:57:47.105Z,18.00
2018-05-23T01:00:14.625Z,17.97
2018-05-23T01:02:42.152Z,17.85
2018-05-23T01:05:09.687Z,17.92
2018-05-23T01:07:37.208Z,17.92
2018-05-23T01:10:04.734Z,17.85
2018-05-23T01:12:32.261Z,17.87
2018-05-23T01:14:59.787Z,17.91
2018-05-23T01:17:27.319Z,17.92
2018-05-23T01:19:54.866Z,17.87
2018-05-23T01:22:22.399Z,17.81
2018-05-23T01:24:49.950Z,17.81
2018-05-23T01:27:17.513Z,17.76
2018-05-23T01:29:45.048Z,17.75
2018-05-23T01:32:12.575Z,17.75
2018-05-23T01:34:40.120Z,17.75
2018-05-23T01:37:07.674Z,17.75
2018-05-23T01:39:35.219Z,17.72
2018-05-23T01:42:02.736Z,17.63
2018-05-23T01:44:30.265Z,17.67
2018-05-23T01:46:57.799Z,17.62
2018-05-23T01:49:26.277Z,17.64
2018-05-23T01:51:53.792Z,17.62
2018-05-23T01:54:21.321Z,17.61
2018-05-23T01:56:48.857Z,17.59
2018-05-23T01:59:16.410Z,17.57
2018-05-23T02:01:43.940Z,17.54
2018-05-23T02:04:11.473Z,17.45
2018-05-23T02:06:38.996Z,17.46
2018-05-23T02:09:06.524Z,17.42
2018-05-23T02:11:34.053Z,17.39
2018-05-23T02:14:01.593Z,17.34
2018-05-23T02:16:29.171Z,17.19
2018-05-23T02:18:56.717Z,17.22
2018-05-23T02:21:24.249Z,17.21
2018-05-23T02:23:51.776Z,17.16
2018-05-23T02:26:19.324Z,17.17
2018-05-23T02:28:46.864Z,17.14
2018-05-23T02:31:14.402Z,17.07
2018-05-23T02:33:41.932Z,17.09
2018-05-23T02:36:09.464Z,17.00
2018-05-23T02:38:36.995Z,17.02
2018-05-23T02:41:04.529Z,17.01
2018-05-23T02:43:32.069Z,17.01
2018-05-23T02:45:59.612Z,16.98
2018-05-23T02:48:27.152Z,16.95
2018-05-23T02:50:54.701Z,16.93
2018-05-23T02:53:22.239Z,16.94
2018-05-23T02:55:49.764Z,16.86
2018-05-23T02:58:17.301Z,16.83
2018-05-23T03:00:44.842Z,16.83
2018-05-23T03:03:12.413Z,16.82
2018-05-23T03:05:39.957Z,16.83
2018-05-23T03:08:07.487Z,16.78
2018-05-23T03:10:35.022Z,16.69
2018-05-23T03:13:02.552Z,16.71
2018-05-23T03:15:30.128Z,16.65
2018-05-23T03:17:57.673Z,16.63
2018-05-23T03:20:25.214Z,16.62
2018-05-23T03:22:52.740Z,16.59
2018-05-23T03:25:20.262Z,16.59
2018-05-23T03:27:47.796Z,16.56
2018-05-23T03:30:15.329Z,16.58
2018-05-23T03:32:42.859Z,16.59
2018-05-23T03:35:10.383Z,16.49
2018-05-23T03:37:37.917Z,16.45
2018-05-23T03:40:05.452Z,16.39
2018-05-23T03:42:32.979Z,16.39
2018-05-23T03:45:00.504Z,16.46
2018-05-23T03:47:28.034Z,16.46
2018-05-23T03:49:55.585Z,16.45
2018-05-23T03:52:23.124Z,16.50
2018-05-23T03:54:50.659Z,16.43
2018-05-23T03:57:18.197Z,16.31
2018-05-23T03:59:57.436Z,16.38
2018-05-23T04:02:36.853Z,16.33
2018-05-23T04:05:16.253Z,16.34
2018-05-23T04:07:43.779Z,16.31
2018-05-23T04:10:11.312Z,16.36
2018-05-23T04:12:38.841Z,16.40
2018-05-23T04:15:07.179Z,16.42
2018-05-23T04:17:34.711Z,16.47
2018-05-23T04:20:02.244Z,16.49
2018-05-23T04:22:29.787Z,16.49
2018-05-23T04:24:57.345Z,16.59
2018-05-23T04:27:24.877Z,16.68
2018-05-23T04:29:52.430Z,16.65
2018-05-23T04:32:19.972Z,16.71
2018-05-23T04:34:47.513Z,16.72
2018-05-23T04:37:15.042Z,16.73
2018-05-23T04:39:42.577Z,16.78
2018-05-23T04:42:10.112Z,16.80
2018-05-23T04:44:37.649Z,16.88
2018-05-23T04:47:05.180Z,16.95
2018-05-23T04:49:32.708Z,16.95
2018-05-23T04:52:00.241Z,17.01
2018-05-23T04:54:27.785Z,17.08
2018-05-23T04:56:55.320Z,17.09
2018-05-23T04:59:22.849Z,17.17
2018-05-23T05:01:50.378Z,17.19
2018-05-23T05:04:17.906Z,17.28
2018-05-23T05:06:45.425Z,17.38
2018-05-23T05:09:12.941Z,17.42
2018-05-23T05:11:40.473Z,17.49
2018-05-23T05:14:08.008Z,17.56
2018-05-23T05:16:35.547Z,17.60
2018-05-23T05:19:03.081Z,17.70
2018-05-23T05:21:30.614Z,17.79
2018-05-23T05:23:58.128Z,17.90
2018-05-23T05:26:25.657Z,17.95
2018-05-23T05:28:53.184Z,18.08
2018-05-23T05:31:20.718Z,18.16
2018-05-23T05:33:48.260Z,18.24
2018-05-23T05:36:15.793Z,18.35
2018-05-23T05:38:43.402Z,18.48
2018-05-23T05:41:10.885Z,18.63
2018-05-23T05:43:38.430Z,18.69
2018-05-23T05:46:05.963Z,18.82
2018-05-23T05:48:33.548Z,19.00
2018-05-23T05:51:01.094Z,19.15
2018-05-23T05:53:28.636Z,19.29
2018-05-23T05:55:56.171Z,19.38
2018-05-23T05:58:23.704Z,19.52
2018-05-23T06:00:51.229Z,19.77
2018-05-23T06:03:18.748Z,20.08
2018-05-23T06:05:46.264Z,20.14
2018-05-23T06:08:13.815Z,20.55
2018-05-23T06:10:41.351Z,20.75
2018-05-23T06:13:08.886Z,21.04
2018-05-23T06:15:36.415Z,21.35
2018-05-23T06:18:03.952Z,21.57
2018-05-23T06:20:31.489Z,21.91
2018-05-23T06:22:59.024Z,22.26
2018-05-23T06:25:26.569Z,22.65
2018-05-23T06:27:54.113Z,23.01
2018-05-23T06:30:21.725Z,23.39
2018-05-23T06:32:49.217Z,23.70
2018-05-23T06:35:16.748Z,23.83
2018-05-23T06:37:44.370Z,24.29
2018-05-23T06:40:11.842Z,24.69
2018-05-23T06:42:39.373Z,24.93
2018-05-23T06:45:06.892Z,25.24
2018-05-23T06:47:34.420Z,25.61
2018-05-23T06:50:02.011Z,25.69
2018-05-23T06:52:29.510Z,25.91
2018-05-23T06:54:57.032Z,25.76
2018-05-23T06:57:24.554Z,26.30
2018-05-23T06:59:52.096Z,26.77
2018-05-23T07:02:19.763Z,26.92
2018-05-23T07:04:47.237Z,27.17
2018-05-23T07:07:14.780Z,26.91
2018-05-23T07:09:45.199Z,26.99
2018-05-23T07:12:15.684Z,27.31
2018-05-23T07:14:45.580Z,27.88
2018-05-23T07:17:15.534Z,27.28
2018-05-23T07:19:43.096Z,27.52
2018-05-23T07:22:10.685Z,28.04
2018-05-23T07:24:38.204Z,28.40
2018-05-23T07:27:05.780Z,27.67
2018-05-23T07:29:33.319Z,28.50
2018-05-23T07:32:00.851Z,28.68
2018-05-23T07:34:28.476Z,28.98
2018-05-23T07:36:56.027Z,28.95
2018-05-23T07:39:23.606Z,28.76
2018-05-23T07:41:51.223Z,29.31
2018-05-23T07:44:18.832Z,28.74
2018-05-23T07:46:46.447Z,29.02
2018-05-23T07:49:13.971Z,29.63
2018-05-23T07:51:41.512Z,30.05
2018-05-23T07:54:09.042Z,29.58
2018-05-23T07:56:36.595Z,29.94
2018-05-23T07:59:04.117Z,29.92
2018-05-23T08:01:31.755Z,29.38
2018-05-23T08:03:59.280Z,30.48
2018-05-23T08:06:26.810Z,31.24
2018-05-23T08:08:54.356Z,32.15
2018-05-23T08:11:21.983Z,30.70
2018-05-23T08:13:49.557Z,31.10
2018-05-23T08:16:17.084Z,30.64
2018-05-23T08:18:44.677Z,32.08
2018-05-23T08:21:12.200Z,32.04
2018-05-23T08:23:39.791Z,33.03
2018-05-23T08:26:07.317Z,33.46
2018-05-23T08:28:34.841Z,35.04
2018-05-23T08:31:02.471Z,34.88
2018-05-23T08:33:30.030Z,35.55
2018-05-23T08:35:57.557Z,35.70
2018-05-23T08:38:25.152Z,35.51
2018-05-23T08:40:52.667Z,35.25
2018-05-23T08:43:20.267Z,34.85
2018-05-23T08:45:47.788Z,35.15
2018-05-23T08:48:15.340Z,34.89
2018-05-23T08:50:42.951Z,35.22
2018-05-23T08:53:10.510Z,36.79
2018-05-23T08:55:38.071Z,36.92
2018-05-23T08:58:05.632Z,37.41
2018-05-23T09:00:33.156Z,38.47
2018-05-23T09:03:00.750Z,39.06
2018-05-23T09:05:28.313Z,39.11
2018-05-23T09:07:55.871Z,38.33
2018-05-23T09:10:23.392Z,39.26
2018-05-23T09:12:50.986Z,39.37
2018-05-23T09:15:18.551Z,39.55
2018-05-23T09:17:46.107Z,39.01
2018-05-23T09:20:13.674Z,38.15
2018-05-23T09:22:41.196Z,37.50
2018-05-23T09:25:08.720Z,38.45
2018-05-23T09:27:36.243Z,39.42
2018-05-23T09:30:03.782Z,39.27
2018-05-23T09:32:31.301Z,39.51
2018-05-23T09:34:58.827Z,39.56
2018-05-23T09:37:26.353Z,39.20
2018-05-23T09:39:53.941Z,40.09
2018-05-23T09:42:21.505Z,39.83
2018-05-23T09:44:49.051Z,40.38
2018-05-23T09:47:16.576Z,40.08
2018-05-23T09:49:44.114Z,37.99
2018-05-23T09:52:11.644Z,37.53
2018-05-23T09:54:39.171Z,36.87
2018-05-23T09:57:06.682Z,36.03
2018-05-23T09:59:34.308Z,36.56
2018-05-23T10:02:01.831Z,37.55
2018-05-23T10:04:29.367Z,36.66
2018-05-23T10:06:57.003Z,35.41
2018-05-23T10:09:24.550Z,36.34
2018-05-23T10:11:52.123Z,37.18
2018-05-23T10:14:19.672Z,37.72
2018-05-23T10:16:47.245Z,36.85
2018-05-23T10:19:14.907Z,37.76
2018-05-23T10:21:42.432Z,37.79
2018-05-23T10:24:09.960Z,37.66
2018-05-23T10:26:37.587Z,37.20
2018-05-23T10:29:05.113Z,35.76
2018-05-23T10:31:32.697Z,36.59
2018-05-23T10:34:00.216Z,35.86
2018-05-23T10:36:27.755Z,35.05
2018-05-23T10:38:55.281Z,34.08
2018-05-23T10:41:22.815Z,32.56
2018-05-23T10:43:50.330Z,32.47
2018-05-23T10:46:17.987Z,32.42
2018-05-23T10:48:45.495Z,32.45
2018-05-23T10:51:13.025Z,31.92
2018-05-23T10:53:40.601Z,30.97
2018-05-23T10:56:08.204Z,30.76
2018-05-23T10:58:35.730Z,29.45
2018-05-23T11:01:03.311Z,28.79
2018-05-23T11:03:30.847Z,28.65
2018-05-23T11:05:58.449Z,29.11
2018-05-23T11:08:26.008Z,28.75
2018-05-23T11:10:53.569Z,28.62
2018-05-23T11:13:21.096Z,27.85
2018-05-23T11:15:48.619Z,28.06
2018-05-23T11:18:16.137Z,28.11
2018-05-23T11:20:43.667Z,27.98
2018-05-23T11:23:11.188Z,27.73
2018-05-23T11:25:38.722Z,27.55
2018-05-23T11:28:06.290Z,27.45
2018-05-23T11:30:33.807Z,27.53
2018-05-23T11:33:01.364Z,26.93
2018-05-23T11:35:29.779Z,27.03
2018-05-23T11:37:57.310Z,27.05
2018-05-23T11:40:24.832Z,26.96
2018-05-23T11:42:52.357Z,27.03
2018-05-23T11:45:19.873Z,26.99
2018-05-23T11:47:47.481Z,26.92
2018-05-23T11:50:15.038Z,27.10
2018-05-23T11:52:42.561Z,26.93
2018-05-23T11:55:10.084Z,26.74
2018-05-23T11:57:37.615Z,26.33
2018-05-23T12:00:05.141Z,26.31
2018-05-23T12:02:32.659Z,26.44
2018-05-23T12:05:00.280Z,26.32
2018-05-23T12:07:27.805Z,26.39
2018-05-23T12:09:55.369Z,26.44
2018-05-23T12:12:22.940Z,26.41
2018-05-23T12:14:50.502Z,26.37
2018-05-23T12:17:18.063Z,26.48
2018-05-23T12:19:45.684Z,26.19
2018-05-23T12:22:13.197Z,26.29
2018-05-23T12:24:40.727Z,26.25
2018-05-23T12:27:08.265Z,26.35
2018-05-23T12:29:35.881Z,26.11
2018-05-23T12:32:03.449Z,26.22
2018-05-23T12:34:30.969Z,26.28
2018-05-23T12:36:58.555Z,26.28
2018-05-23T12:39:26.080Z,26.14
2018-05-23T12:41:53.620Z,25.73
2018-05-23T12:44:21.164Z,25.93
2018-05-23T12:46:49.177Z,26.09
2018-05-23T12:49:16.791Z,26.16
2018-05-23T12:51:44.308Z,26.01
2018-05-23T12:54:11.845Z,26.06
2018-05-23T12:56:39.467Z,25.97
2018-05-23T12:59:06.989Z,25.98
2018-05-23T13:01:34.517Z,25.92
2018-05-23T13:04:02.128Z,26.06
2018-05-23T13:06:29.652Z,25.88
2018-05-23T13:08:57.197Z,25.92
2018-05-23T13:11:24.720Z,26.06
2018-05-23T13:13:52.247Z,26.08
2018-05-23T13:16:19.827Z,26.06
2018-05-23T13:18:47.339Z,26.08
2018-05-23T13:21:14.865Z,26.15
2018-05-23T13:23:42.399Z,26.17
2018-05-23T13:26:09.965Z,26.16
2018-05-23T13:28:38.274Z,26.10
2018-05-23T13:31:05.815Z,25.94
2018-05-23T13:33:33.375Z,26.05
2018-05-23T13:36:00.901Z,26.06
2018-05-23T13:38:28.432Z,26.12
2018-05-23T13:40:56.192Z,26.10
2018-05-23T13:43:23.895Z,26.02
2018-05-23T13:45:51.477Z,25.94
2018-05-23T13:48:19.044Z,26.05
2018-05-23T13:50:46.604Z,26.06
2018-05-23T13:53:14.266Z,26.03
2018-05-23T13:55:41.796Z,26.04
2018-05-23T13:58:09.312Z,26.04
2018-05-23T14:00:36.843Z,26.02
2018-05-23T14:03:04.405Z,26.02
2018-05-23T14:05:31.930Z,25.95
2018-05-23T14:07:59.447Z,25.90
2018-05-23T14:10:26.974Z,25.90
2018-05-23T14:12:54.540Z,25.99
2018-05-23T14:15:22.099Z,26.05
2018-05-23T14:17:49.654Z,25.94
2018-05-23T14:20:17.172Z,25.72
2018-05-23T14:22:44.781Z,25.84
2018-05-23T14:25:12.308Z,25.92
2018-05-23T14:27:39.831Z,25.92
2018-05-23T14:30:07.455Z,25.88
2018-05-23T14:32:35.183Z,25.95
2018-05-23T14:35:02.753Z,25.96
2018-05-23T14:37:30.344Z,25.94
2018-05-23T14:39:57.907Z,25.98
2018-05-23T14:42:25.672Z,26.05
2018-05-23T14:44:53.200Z,25.98
2018-05-23T14:47:20.720Z,25.93
2018-05-23T14:49:48.248Z,25.89
2018-05-23T14:52:15.766Z,25.85
2018-05-23T14:54:43.291Z,25.81
2018-05-23T14:57:12.189Z,25.72
2018-05-23T14:59:39.721Z,25.62
2018-05-23T15:02:07.229Z,25.60
2018-05-23T15:04:34.831Z,25.54
2018-05-23T15:07:02.391Z,25.60
2018-05-23T15:09:29.920Z,25.44
2018-05-23T15:11:57.442Z,25.53
2018-05-23T15:14:25.115Z,25.57
2018-05-23T15:16:52.614Z,25.56
2018-05-23T15:19:20.179Z,25.57
2018-05-23T15:21:47.684Z,25.56
2018-05-23T15:24:15.199Z,25.60
2018-05-23T15:26:42.727Z,25.57
2018-05-23T15:29:10.256Z,25.56
2018-05-23T15:31:37.775Z,25.44
2018-05-23T15:34:05.496Z,25.45
2018-05-23T15:36:33.036Z,25.47
2018-05-23T15:39:00.704Z,25.55
2018-05-23T15:41:28.220Z,25.51
2018-05-23T15:43:55.748Z,25.45
2018-05-23T15:46:23.275Z,25.47
2018-05-23T15:48:50.795Z,25.43
2018-05-23T15:51:18.659Z,25.50
2018-05-23T15:53:46.786Z,25.51
2018-05-23T15:56:14.412Z,25.47
2018-05-23T15:58:41.946Z,25.41
2018-05-23T16:01:09.465Z,25.45
2018-05-23T16:03:37.093Z,25.43
2018-05-23T16:06:04.622Z,25.42
2018-05-23T16:08:32.215Z,25.39
2018-05-23T16:10:59.760Z,25.33
2018-05-23T16:13:27.286Z,25.37
2018-05-23T16:15:54.817Z,25.35
2018-05-23T16:18:22.448Z,25.31
2018-05-23T16:20:50.017Z,25.35
2018-05-23T16:23:17.542Z,25.39
2018-05-23T16:25:45.059Z,25.51
2018-05-23T16:28:12.800Z,25.34
2018-05-23T16:30:40.324Z,25.39
2018-05-23T16:33:07.852Z,25.38
2018-05-23T16:35:35.417Z,25.31
2018-05-23T16:38:02.968Z,25.38
2018-05-23T16:40:30.476Z,25.33
2018-05-23T16:42:58.041Z,25.26
2018-05-23T16:45:25.568Z,25.24
2018-05-23T16:47:53.143Z,25.18
2018-05-23T16:50:20.689Z,25.12
2018-05-23T16:52:48.296Z,25.12
2018-05-23T16:55:15.856Z,25.06
2018-05-23T16:57:43.371Z,25.02
2018-05-23T17:00:10.911Z,25.03
2018-05-23T17:02:38.530Z,25.05
2018-05-23T17:05:06.085Z,25.03
2018-05-23T17:07:33.649Z,24.93
2018-05-23T17:10:01.214Z,24.94
2018-05-23T17:12:28.764Z,24.83
2018-05-23T17:14:56.300Z,24.75
2018-05-23T17:17:23.868Z,24.70
2018-05-23T17:19:51.449Z,24.61
2018-05-23T17:22:18.997Z,24.59
2018-05-23T17:24:46.531Z,24.57
2018-05-23T17:27:14.073Z,24.65
2018-05-23T17:29:41.630Z,24.55
2018-05-23T17:32:09.195Z,24.47
2018-05-23T17:34:36.810Z,24.43
2018-05-23T17:37:04.375Z,24.38
2018-05-23T17:39:31.900Z,24.38
2018-05-23T17:41:59.431Z,24.24
2018-05-23T17:44:26.953Z,24.23
2018-05-23T17:46:54.480Z,24.23
2018-05-23T17:49:21.996Z,24.19
2018-05-23T17:51:49.617Z,24.12
2018-05-23T17:54:17.131Z,24.03
2018-05-23T17:56:44.648Z,24.06
2018-05-23T17:59:12.162Z,24.09
2018-05-23T18:01:39.688Z,24.05
2018-05-23T18:04:07.335Z,24.08
2018-05-23T18:06:34.861Z,24.05
2018-05-23T18:09:02.394Z,24.07
2018-05-23T18:11:29.930Z,23.93
2018-05-23T18:13:57.461Z,23.90
2018-05-23T18:16:24.981Z,23.89
2018-05-23T18:18:52.517Z,23.87
2018-05-23T18:21:20.046Z,23.84
2018-05-23T18:23:47.573Z,23.81
2018-05-23T18:26:15.131Z,23.76
2018-05-23T18:28:43.359Z,23.72
2018-05-23T18:31:10.882Z,23.68
2018-05-23T18:33:38.460Z,23.67
2018-05-23T18:36:06.018Z,23.63
2018-05-23T18:38:33.609Z,23.60
2018-05-23T18:41:01.151Z,23.56
2018-05-23T18:43:28.736Z,23.48
2018-05-23T18:45:56.228Z,23.41
2018-05-23T18:48:23.747Z,23.42
2018-05-23T18:50:51.263Z,23.44
2018-05-23T18:53:18.835Z,23.39
2018-05-23T18:55:46.370Z,23.35
2018-05-23T18:58:14.034Z,23.31
2018-05-23T19:00:41.548Z,23.27
2018-05-23T19:03:09.179Z,23.21
2018-05-23T19:05:36.704Z,23.15
2018-05-23T19:08:04.267Z,23.14
2018-05-23T19:10:31.788Z,23.08
2018-05-23T19:12:59.420Z,23.12
2018-05-23T19:15:26.949Z,23.08
2018-05-23T19:17:54.570Z,23.08
2018-05-23T19:20:22.086Z,23.01
2018-05-23T19:22:49.660Z,23.02
2018-05-23T19:25:17.186Z,22.93
2018-05-23T19:27:44.704Z,22.88
2018-05-23T19:30:12.238Z,22.87
2018-05-23T19:32:39.755Z,22.77
2018-05-23T19:35:07.328Z,22.72
2018-05-23T19:37:34.880Z,22.69
2018-05-23T19:40:02.475Z,22.65
2018-05-23T19:42:30.002Z,22.52
2018-05-23T19:44:57.572Z,22.50
2018-05-23T19:47:25.111Z,22.45
2018-05-23T19:49:52.710Z,22.33
2018-05-23T19:52:20.272Z,22.22
2018-05-23T19:54:47.849Z,22.17
2018-05-23T19:57:15.381Z,22.10
2018-05-23T19:59:42.977Z,22.12
2018-05-23T20:02:10.733Z,22.03
2018-05-23T20:04:38.491Z,21.89
2018-05-23T20:07:06.073Z,21.84
2018-05-23T20:09:33.623Z,21.84
2018-05-23T20:12:01.175Z,21.77
2018-05-23T20:14:28.767Z,21.70
2018-05-23T20:16:56.281Z,21.59
2018-05-23T20:19:23.803Z,21.61
2018-05-23T20:21:51.349Z,21.43
2018-05-23T20:24:18.904Z,21.49
2018-05-23T20:26:46.530Z,21.42
2018-05-23T20:29:14.132Z,21.36
2018-05-23T20:31:41.768Z,21.30
2018-05-23T20:34:09.384Z,21.19
2018-05-23T20:36:37.090Z,21.16
2018-05-23T20:39:05.616Z,21.19
2018-05-23T20:41:33.148Z,21.13
2018-05-23T20:44:00.713Z,21.05
2018-05-23T20:46:28.290Z,20.95
2018-05-23T20:48:55.829Z,20.92
2018-05-23T20:51:23.361Z,20.90
2018-05-23T20:53:51.034Z,20.89
2018-05-23T20:56:18.579Z,20.81
2018-05-23T20:58:46.251Z,20.90
2018-05-23T21:01:13.771Z,20.77
2018-05-23T21:03:41.297Z,20.75
2018-05-23T21:06:09.025Z,20.74
2018-05-23T21:08:36.706Z,20.68
2018-05-23T21:11:04.239Z,20.68
2018-05-23T21:13:31.837Z,20.60
2018-05-23T21:15:59.367Z,20.55
2018-05-23T21:18:26.893Z,20.45
2018-05-23T21:20:54.437Z,20.47
2018-05-23T21:23:22.048Z,20.40
2018-05-23T21:25:49.625Z,20.44
2018-05-23T21:28:17.170Z,20.38
2018-05-23T21:30:44.697Z,20.36
2018-05-23T21:33:12.235Z,20.29
2018-05-23T21:35:39.863Z,20.27
2018-05-23T21:38:07.423Z,20.11
2018-05-23T21:40:34.948Z,20.18
2018-05-23T21:43:02.464Z,20.11
2018-05-23T21:45:30.036Z,20.05
2018-05-23T21:47:57.581Z,19.95
2018-05-23T21:50:25.200Z,20.11
2018-05-23T21:52:52.727Z,20.05
2018-05-23T21:55:20.251Z,19.93
2018-05-23T21:57:47.887Z,19.88
2018-05-23T22:00:15.417Z,19.86
2018-05-23T22:02:43.009Z,19.83
2018-05-23T22:05:10.566Z,19.84
2018-05-23T22:07:38.096Z,19.90
2018-05-23T22:10:05.683Z,19.80
2018-05-23T22:12:33.346Z,19.84
2018-05-23T22:15:00.872Z,19.79
2018-05-23T22:17:28.391Z,19.70
2018-05-23T22:19:56.013Z,19.77
2018-05-23T22:22:23.524Z,19.71
2018-05-23T22:24:51.142Z,19.69
2018-05-23T22:27:18.670Z,19.67
2018-05-23T22:29:46.268Z,19.63
2018-05-23T22:32:13.825Z,19.63
2018-05-23T22:34:41.352Z,19.51
2018-05-23T22:37:08.881Z,19.57
2018-05-23T22:39:36.508Z,19.63
2018-05-23T22:42:04.032Z,19.57
2018-05-23T22:44:31.559Z,19.54
2018-05-23T22:46:59.089Z,19.52
2018-05-23T22:49:26.615Z,19.47
2018-05-23T22:51:54.129Z,19.50
2018-05-23T22:54:21.664Z,19.42
2018-05-23T22:56:49.221Z,19.37
2018-05-23T22:59:16.757Z,19.39
2018-05-23T23:01:44.285Z,19.34
2018-05-23T23:04:11.854Z,19.36
2018-05-23T23:06:39.380Z,19.29
2018-05-23T23:09:07.024Z,19.21
2018-05-23T23:11:34.580Z,19.24
2018-05-23T23:14:02.107Z,19.29
2018-05-23T23:16:29.636Z,19.13
2018-05-23T23:18:57.168Z,19.16
2018-05-23T23:21:24.821Z,19.15
2018-05-23T23:23:52.381Z,19.09
2018-05-23T23:26:19.909Z,19.09
2018-05-23T23:28:47.505Z,19.05
2018-05-23T23:31:15.046Z,19.03
2018-05-23T23:33:42.576Z,18.97
2018-05-23T23:36:10.128Z,19.04
2018-05-23T23:38:37.664Z,18.96
2018-05-23T23:41:05.198Z,18.95
2018-05-23T23:43:32.724Z,18.95
2018-05-23T23:46:00.247Z,18.89
2018-05-23T23:48:27.773Z,18.91
2018-05-23T23:50:55.337Z,18.95
2018-05-23T23:53:22.863Z,18.94
2018-05-23T23:55:50.389Z,18.89
2018-05-23T23:58:17.945Z,18.89
